Time;durP1;ratioP1;P1;durP2;ratioP2;P2;SDS_P1;SDS_P2;PMS_P1;PMS_P2;Temp;Humidity;BMP_temperature;BMP_pressure;BME280_temperature;BME280_humidity;BME280_pressure;Samples;Min_cycle;Max_cycle;Signal;HPM_P1;HPM_P2
2023/12/10 00:00:07;;;;;;;;;5.00;4.00;;;;;-146.25;100.00;57879.81;5099039;27;45442;-76
2023/12/10 00:02:33;;;;;;;;;5.00;4.00;;;;;-146.25;100.00;57879.81;5099065;27;45316;-76
2023/12/10 00:04:58;;;;;;;;;5.25;5.00;;;;;-146.25;100.00;57879.81;5098787;27;45231;-76
2023/12/10 00:07:24;;;;;;;;;3.25;3.00;;;;;-146.25;100.00;57879.81;5098901;27;45549;-76
2023/12/10 00:09:50;;;;;;;;;1.75;1.75;;;;;-146.25;100.00;57879.81;5099081;27;45451;-76
2023/12/10 00:12:16;;;;;;;;;3.00;1.00;;;;;-146.25;100.00;57879.81;5098733;27;45457;-76
2023/12/10 00:14:42;;;;;;;;;1.00;1.00;;;;;-146.25;100.00;57879.81;5098593;27;45324;-76
2023/12/10 00:17:07;;;;;;;;;4.00;2.00;;;;;-146.25;100.00;57879.81;5098863;27;45434;-76
2023/12/10 00:19:33;;;;;;;;;2.00;1.75;;;;;-146.25;100.00;57879.81;5080452;27;45214;-76
2023/12/10 00:21:59;;;;;;;;;0.33;0.00;;;;;-146.25;100.00;57879.81;5098700;27;45442;-76
2023/12/10 00:24:25;;;;;;;;;1.33;1.00;;;;;-146.25;100.00;57879.81;5098459;27;45442;-76
2023/12/10 00:26:51;;;;;;;;;0.00;0.00;;;;;-146.25;100.00;57879.81;5098847;27;45322;-76
2023/12/10 00:29:16;;;;;;;;;1.33;1.00;;;;;-146.25;100.00;57879.81;5098858;27;45424;-76
2023/12/10 00:31:43;;;;;;;;;0.00;0.00;;;;;-146.25;100.00;57879.81;5098559;27;45977;-76
2023/12/10 00:34:09;;;;;;;;;1.00;0.00;;;;;-146.25;100.00;57879.81;5098618;27;45303;-76
2023/12/10 00:36:35;;;;;;;;;2.67;1.00;;;;;-146.25;100.00;57879.81;5098922;27;45529;-76
2023/12/10 00:39:04;;;;;;;;;0.33;0.00;;;;;-146.25;100.00;57879.81;5098770;27;45467;-76
2023/12/10 00:41:30;;;;;;;;;0.00;0.00;;;;;-146.25;100.00;57879.81;5098203;27;45553;-76
2023/12/10 00:43:56;;;;;;;;;0.00;0.00;;;;;-146.25;100.00;57879.81;5098288;27;45553;-76
2023/12/10 00:46:22;;;;;;;;;0.00;0.00;;;;;-146.25;100.00;57879.81;5098409;27;45329;-76
2023/12/10 00:48:47;;;;;;;;;0.00;0.00;;;;;-146.25;100.00;57879.81;5098659;27;45534;-76
2023/12/10 00:51:20;;;;;;;;;0.67;0.67;;;;;-146.25;100.00;57879.81;5098013;27;45603;-76
2023/12/10 00:53:47;;;;;;;;;2.00;0.00;;;;;-146.25;100.00;57879.81;5098119;27;45520;-76
2023/12/10 00:56:13;;;;;;;;;2.33;1.00;;;;;-146.25;100.00;57879.81;5078761;27;45355;-76
2023/12/10 00:58:40;;;;;;;;;2.00;2.00;;;;;-146.25;100.00;57879.81;5097491;27;45479;-75
2023/12/10 01:01:07;;;;;;;;;1.67;1.00;;;;;-146.25;100.00;57879.81;5097758;27;45949;-75
2023/12/10 01:03:34;;;;;;;;;2.00;1.67;;;;;-146.25;100.00;57879.81;5097753;27;45303;-76
2023/12/10 01:06:00;;;;;;;;;2.00;2.00;;;;;-146.25;100.00;57879.81;5096553;27;45464;-76
2023/12/10 01:08:26;;;;;;;;;3.25;3.00;;;;;-146.25;100.00;57879.81;5097918;27;45407;-76
2023/12/10 01:10:52;;;;;;;;;3.25;3.00;;;;;-146.25;100.00;57879.81;5096714;27;46192;-75
2023/12/10 01:13:17;;;;;;;;;3.00;2.00;;;;;-146.25;100.00;57879.81;5097405;27;45303;-75
2023/12/10 01:15:43;;;;;;;;;3.00;2.67;;;;;-146.25;100.00;57879.81;5097614;27;45260;-76
2023/12/10 01:18:09;;;;;;;;;4.00;1.75;;;;;-146.25;100.00;57879.81;5097676;27;45454;-76
2023/12/10 01:20:37;;;;;;;;;2.50;2.00;;;;;-146.25;100.00;57879.81;5097758;27;46049;-76
2023/12/10 01:23:04;;;;;;;;;3.25;1.25;;;;;-146.25;100.00;57879.81;5097938;27;45337;-76
2023/12/10 01:25:29;;;;;;;;;5.25;2.50;;;;;-146.25;100.00;57879.81;5097749;27;45461;-77
2023/12/10 01:27:55;;;;;;;;;3.00;2.00;;;;;-146.25;100.00;57879.81;5097925;27;45778;-76
2023/12/10 01:30:23;;;;;;;;;2.50;2.00;;;;;-146.25;100.00;57879.81;5097664;27;45939;-76
2023/12/10 01:32:58;;;;;;;;;3.50;2.00;;;;;-146.25;100.00;57879.81;5097695;27;45403;-76
2023/12/10 01:35:25;;;;;;;;;1.00;1.00;;;;;-146.25;100.00;57879.81;5097747;27;45300;-76
2023/12/10 01:37:51;;;;;;;;;2.25;2.00;;;;;-146.25;100.00;57879.81;5097844;27;45469;-76
2023/12/10 01:40:17;;;;;;;;;3.00;2.00;;;;;-146.25;100.00;57879.81;5097418;27;45370;-76
2023/12/10 01:42:46;;;;;;;;;3.75;2.25;;;;;-146.25;100.00;57879.81;5097529;27;45481;-76
2023/12/10 01:45:12;;;;;;;;;6.00;2.00;;;;;-146.25;100.00;57879.81;5079130;27;45366;-76
2023/12/10 01:47:41;;;;;;;;;6.00;3.50;;;;;-146.25;100.00;57879.81;5098013;27;45249;-76
2023/12/10 01:50:12;;;;;;;;;4.25;3.50;;;;;-146.25;100.00;57879.81;5097525;27;46279;-76
2023/12/10 01:52:40;;;;;;;;;2.75;2.00;;;;;-146.25;100.00;57879.81;5097532;27;45519;-76
2023/12/10 01:55:07;;;;;;;;;4.00;3.00;;;;;-146.25;100.00;57879.81;5097500;27;45268;-76
2023/12/10 01:57:33;;;;;;;;;1.00;1.00;;;;;-146.25;100.00;57879.81;5097533;27;45520;-76
2023/12/10 01:59:59;;;;;;;;;1.00;0.00;;;;;-146.25;100.00;57879.81;5097036;27;46005;-76
2023/12/10 02:02:26;;;;;;;;;2.00;2.00;;;;;-146.25;100.00;57879.81;5078862;27;45359;-76
2023/12/10 02:04:54;;;;;;;;;1.00;1.00;;;;;-146.25;100.00;57879.81;5078910;27;45556;-76
2023/12/10 02:07:23;;;;;;;;;1.00;1.00;;;;;-146.25;100.00;57879.81;5097614;27;45313;-76
2023/12/10 02:09:49;;;;;;;;;0.25;0.00;;;;;-146.25;100.00;57879.81;5097057;27;46032;-76
2023/12/10 02:12:17;;;;;;;;;1.00;1.00;;;;;-146.25;100.00;57879.81;5099853;27;45379;-76
2023/12/10 02:14:42;;;;;;;;;1.00;0.00;;;;;-146.25;100.00;57879.81;5101139;27;45743;-76
2023/12/10 02:17:08;;;;;;;;;0.75;0.25;;;;;-146.25;100.00;57879.81;5101045;27;45516;-77
2023/12/10 02:19:35;;;;;;;;;0.00;0.00;;;;;-146.25;100.00;57879.81;5100746;27;46001;-76
2023/12/10 02:22:02;;;;;;;;;0.25;0.25;;;;;-146.25;100.00;57879.81;5100770;27;45471;-77
2023/12/10 02:24:41;;;;;;;;;0.00;0.00;;;;;-146.25;100.00;57879.81;5100770;27;45507;-76
2023/12/10 02:27:09;;;;;;;;;0.00;0.00;;;;;-146.25;100.00;57879.81;5100850;27;45429;-76
2023/12/10 02:29:35;;;;;;;;;1.00;0.00;;;;;-146.25;100.00;57879.81;5100467;27;45492;-77
2023/12/10 02:32:00;;;;;;;;;1.00;1.00;;;;;-146.25;100.00;57879.81;5100555;27;45634;-77
2023/12/10 02:34:26;;;;;;;;;3.00;2.00;;;;;-146.25;100.00;57879.81;5100685;27;45232;-76
2023/12/10 02:36:51;;;;;;;;;1.00;1.00;;;;;-146.25;100.00;57879.81;5100722;27;45636;-76
2023/12/10 02:39:17;;;;;;;;;0.00;0.00;;;;;-146.25;100.00;57879.81;5100165;27;45339;-76
2023/12/10 02:41:43;;;;;;;;;0.00;0.00;;;;;-146.25;100.00;57879.81;5100624;27;45382;-76
2023/12/10 02:44:08;;;;;;;;;0.00;0.00;;;;;-146.25;100.00;57879.81;5100632;27;45242;-77
2023/12/10 02:46:34;;;;;;;;;0.00;0.00;;;;;-146.25;100.00;57879.81;5100773;27;45219;-77
2023/12/10 02:49:00;;;;;;;;;0.00;0.00;;;;;-146.25;100.00;57879.81;5100297;27;45958;-76
2023/12/10 02:51:25;;;;;;;;;0.25;0.00;;;;;-146.25;100.00;57879.81;5100082;27;45365;-77
2023/12/10 02:53:51;;;;;;;;;0.75;0.00;;;;;-146.25;100.00;57879.81;5100250;27;45346;-77
2023/12/10 02:56:16;;;;;;;;;1.50;1.00;;;;;-146.25;100.00;57879.81;5100211;27;45415;-77
2023/12/10 02:58:42;;;;;;;;;3.00;3.00;;;;;-146.25;100.00;57879.81;5081846;27;45515;-76
2023/12/10 03:01:08;;;;;;;;;1.50;1.25;;;;;-146.25;100.00;57879.81;5100165;27;45327;-76
2023/12/10 03:03:33;;;;;;;;;2.00;1.00;;;;;-146.25;100.00;57879.81;5100133;27;45542;-76
2023/12/10 03:05:59;;;;;;;;;1.00;0.25;;;;;-146.25;100.00;57879.81;5100281;27;45396;-77
2023/12/10 03:08:24;;;;;;;;;1.50;1.00;;;;;-146.25;100.00;57879.81;5099733;27;45548;-76
2023/12/10 03:10:50;;;;;;;;;3.00;1.00;;;;;-146.25;100.00;57879.81;5099600;27;45469;-76
2023/12/10 03:13:16;;;;;;;;;3.00;1.75;;;;;-146.25;100.00;57879.81;5100306;27;45326;-77
2023/12/10 03:15:41;;;;;;;;;1.50;1.25;;;;;-146.25;100.00;57879.81;5100006;27;45298;-76
2023/12/10 03:18:08;;;;;;;;;1.00;0.00;;;;;-146.25;100.00;57879.81;5099753;27;45404;-77
2023/12/10 03:20:33;;;;;;;;;1.25;0.00;;;;;-146.25;100.00;57879.81;5099693;27;45369;-76
2023/12/10 03:23:01;;;;;;;;;1.00;1.00;;;;;-146.25;100.00;57879.81;5098538;27;45495;-76
2023/12/10 03:25:26;;;;;;;;;1.00;1.00;;;;;-146.25;100.00;57879.81;5099928;27;45509;-76
2023/12/10 03:27:52;;;;;;;;;1.50;0.50;;;;;-146.25;100.00;57879.81;5099433;27;45231;-76
2023/12/10 03:30:17;;;;;;;;;1.75;1.75;;;;;-146.25;100.00;57879.81;5100130;27;45477;-76
2023/12/10 03:32:43;;;;;;;;;2.00;1.50;;;;;-146.25;100.00;57879.81;5100155;27;45414;-76
2023/12/10 03:35:09;;;;;;;;;1.50;1.00;;;;;-146.25;100.00;57879.81;5099817;27;45545;-76
2023/12/10 03:37:34;;;;;;;;;1.00;1.00;;;;;-146.25;100.00;57879.81;5099308;27;45308;-77
2023/12/10 03:40:00;;;;;;;;;2.00;1.00;;;;;-146.25;100.00;57879.81;5099005;27;45386;-77
2023/12/10 03:42:26;;;;;;;;;2.50;1.50;;;;;-146.25;100.00;57879.81;5099594;27;45533;-77
2023/12/10 03:44:51;;;;;;;;;2.75;1.75;;;;;-146.25;100.00;57879.81;5099808;27;45580;-76
2023/12/10 03:47:17;;;;;;;;;1.75;1.75;;;;;-146.25;100.00;57879.81;5099489;27;45211;-76
2023/12/10 03:49:43;;;;;;;;;2.00;2.00;;;;;-146.25;100.00;57879.81;5099199;27;45338;-77
2023/12/10 03:52:09;;;;;;;;;2.00;2.00;;;;;-146.25;100.00;57879.81;5099272;27;45401;-76
2023/12/10 03:54:34;;;;;;;;;2.00;2.00;;;;;-146.25;100.00;57879.81;5099391;27;45279;-77
2023/12/10 03:57:00;;;;;;;;;2.75;2.00;;;;;-146.25;100.00;57879.81;5099113;27;46162;-77
2023/12/10 03:59:26;;;;;;;;;5.75;2.75;;;;;-146.25;100.00;57879.81;5098953;27;45438;-77
2023/12/10 04:01:51;;;;;;;;;3.75;2.00;;;;;-146.25;100.00;57879.81;5099302;27;45267;-77
2023/12/10 04:04:17;;;;;;;;;3.00;1.00;;;;;-146.25;100.00;57879.81;5099669;27;45339;-77
2023/12/10 04:06:42;;;;;;;;;2.00;1.00;;;;;-146.25;100.00;57879.81;5098968;27;45441;-77
2023/12/10 04:09:09;;;;;;;;;1.50;0.00;;;;;-146.25;100.00;57879.81;5098926;27;45322;-77
2023/12/10 04:11:35;;;;;;;;;1.00;0.75;;;;;-146.25;100.00;57879.81;5099177;27;45500;-77
2023/12/10 04:14:01;;;;;;;;;0.25;0.00;;;;;-146.25;100.00;57879.81;5099264;27;45402;-77
2023/12/10 04:16:29;;;;;;;;;1.00;0.00;;;;;-146.25;100.00;57879.81;5098757;27;45879;-77
2023/12/10 04:18:55;;;;;;;;;1.00;0.00;;;;;-146.25;100.00;57879.81;5098776;27;45449;-77
2023/12/10 04:21:24;;;;;;;;;0.50;0.25;;;;;-146.25;100.00;57879.81;5099043;27;45338;-77
2023/12/10 04:23:49;;;;;;;;;0.00;0.00;;;;;-146.25;100.00;57879.81;5099267;27;45504;-77
2023/12/10 04:26:16;;;;;;;;;1.00;0.00;;;;;-146.25;100.00;57879.81;5098551;27;45344;-77
2023/12/10 04:28:43;;;;;;;;;1.00;0.00;;;;;-146.25;100.00;57879.81;5098776;27;45279;-77
2023/12/10 04:31:09;;;;;;;;;0.75;0.00;;;;;-146.25;100.00;57879.81;5098725;27;45235;-76
2023/12/10 04:33:35;;;;;;;;;0.00;0.00;;;;;-146.25;100.00;57879.81;5098183;27;45461;-76
2023/12/10 04:36:01;;;;;;;;;0.50;0.00;;;;;-146.25;100.00;57879.81;5098336;27;45345;-77
2023/12/10 04:38:28;;;;;;;;;3.25;1.75;;;;;-146.25;100.00;57879.81;5098265;27;45303;-76
2023/12/10 04:40:54;;;;;;;;;4.00;2.25;;;;;-146.25;100.00;57879.81;5098723;27;45240;-77
2023/12/10 04:43:20;;;;;;;;;7.00;4.00;;;;;-146.25;100.00;57879.81;5098739;27;45505;-76
2023/12/10 04:45:45;;;;;;;;;2.25;2.00;;;;;-146.25;100.00;57879.81;5098165;27;45921;-77
2023/12/10 04:48:15;;;;;;;;;1.00;1.00;;;;;-146.25;100.00;57879.81;5098156;27;45468;-76
2023/12/10 04:50:41;;;;;;;;;0.00;0.00;;;;;-146.25;100.00;57879.81;5079900;27;45421;-77
2023/12/10 04:53:09;;;;;;;;;0.00;0.00;;;;;-146.25;100.00;57879.81;5079959;27;45513;-77
2023/12/10 04:55:35;;;;;;;;;0.67;0.00;;;;;-146.25;100.00;57879.81;5098319;27;45197;-76
2023/12/10 04:58:01;;;;;;;;;1.33;0.00;;;;;-146.25;100.00;57879.81;5098134;27;45338;-77
2023/12/10 05:00:26;;;;;;;;;2.00;1.50;;;;;-146.25;100.00;57879.81;5098107;27;45999;-76
2023/12/10 05:02:52;;;;;;;;;0.00;0.00;;;;;-146.25;100.00;57879.81;5098677;27;45472;-77
2023/12/10 05:05:18;;;;;;;;;1.00;0.00;;;;;-146.25;100.00;57879.81;5079657;27;46245;-77
2023/12/10 05:07:44;;;;;;;;;0.00;0.00;;;;;-146.25;100.00;57879.81;5098031;27;45222;-77
2023/12/10 05:10:10;;;;;;;;;0.00;0.00;;;;;-146.25;100.00;57879.81;5098055;27;45416;-76
2023/12/10 05:12:36;;;;;;;;;0.00;0.00;;;;;-146.25;100.00;57879.81;5098117;27;45385;-76
2023/12/10 05:15:01;;;;;;;;;0.00;0.00;;;;;-146.25;100.00;57879.81;5097833;27;45465;-77
2023/12/10 05:17:27;;;;;;;;;0.33;0.33;;;;;-146.25;100.00;57879.81;5097838;27;45418;-77
2023/12/10 05:19:53;;;;;;;;;0.33;0.00;;;;;-146.25;100.00;57879.81;5097784;27;45597;-77
2023/12/10 05:22:20;;;;;;;;;0.00;0.00;;;;;-146.25;100.00;57879.81;5098096;27;45307;-77
2023/12/10 05:24:45;;;;;;;;;0.00;0.00;;;;;-146.25;100.00;57879.81;5097852;27;45556;-77
2023/12/10 05:27:11;;;;;;;;;0.67;0.00;;;;;-146.25;100.00;57879.81;5097881;27;45304;-77
2023/12/10 05:29:37;;;;;;;;;0.00;0.00;;;;;-146.25;100.00;57879.81;5097926;27;45397;-77
2023/12/10 05:32:03;;;;;;;;;0.00;0.00;;;;;-146.25;100.00;57879.81;5098108;27;45454;-77
2023/12/10 05:34:28;;;;;;;;;0.00;0.00;;;;;-146.25;100.00;57879.81;5097707;27;46196;-77
2023/12/10 05:36:54;;;;;;;;;0.00;0.00;;;;;-146.25;100.00;57879.81;5097822;27;45535;-77
2023/12/10 05:39:20;;;;;;;;;0.00;0.00;;;;;-146.25;100.00;57879.81;5097649;27;46098;-77
2023/12/10 05:41:45;;;;;;;;;0.00;0.00;;;;;-146.25;100.00;57879.81;5097787;27;45382;-77
2023/12/10 05:44:11;;;;;;;;;0.00;0.00;;;;;-146.25;100.00;57879.81;5097419;27;45840;-77
2023/12/10 05:46:37;;;;;;;;;0.00;0.00;;;;;-146.25;100.00;57879.81;5099223;27;45445;-76
2023/12/10 05:49:03;;;;;;;;;0.00;0.00;;;;;-146.25;100.00;57879.81;5101208;27;45441;-76
2023/12/10 05:51:29;;;;;;;;;0.00;0.00;;;;;-146.25;100.00;57879.81;5101143;27;45561;-77
2023/12/10 05:53:54;;;;;;;;;0.00;0.00;;;;;-146.25;100.00;57879.81;5101074;27;45402;-76
2023/12/10 05:56:20;;;;;;;;;0.00;0.00;;;;;-146.25;100.00;57879.81;5101093;27;45430;-77
2023/12/10 05:58:46;;;;;;;;;0.00;0.00;;;;;-146.25;100.00;57879.81;5101138;27;45418;-77
2023/12/10 06:01:11;;;;;;;;;0.00;0.00;;;;;-146.25;100.00;57879.81;5101606;27;45596;-76
2023/12/10 06:03:37;;;;;;;;;0.00;0.00;;;;;-146.25;100.00;57879.81;5101066;27;45267;-77
2023/12/10 06:06:02;;;;;;;;;0.00;0.00;;;;;-146.25;100.00;57879.81;5100851;27;45184;-76
2023/12/10 06:08:28;;;;;;;;;0.00;0.00;;;;;-146.25;100.00;57879.81;5101207;27;45246;-77
2023/12/10 06:10:54;;;;;;;;;2.00;0.00;;;;;-146.25;100.00;57879.81;5101618;27;45178;-76
2023/12/10 06:13:20;;;;;;;;;0.00;0.00;;;;;-146.25;100.00;57879.81;5100820;27;46176;-76
2023/12/10 06:15:46;;;;;;;;;0.00;0.00;;;;;-146.25;100.00;57879.81;5100728;27;45476;-76
2023/12/10 06:18:12;;;;;;;;;0.00;0.00;;;;;-146.25;100.00;57879.81;5112480;27;45472;-75
2023/12/10 06:20:38;;;;;;;;;0.00;0.00;;;;;-146.25;100.00;57879.81;5102941;27;45472;-76
2023/12/10 06:23:03;;;;;;;;;0.00;0.00;;;;;-146.25;100.00;57879.81;5120869;27;46049;-75
2023/12/10 06:25:29;;;;;;;;;0.00;0.00;;;;;-146.25;100.00;57879.81;5120955;27;45327;-77
2023/12/10 06:27:56;;;;;;;;;0.00;0.00;;;;;-146.25;100.00;57879.81;5121614;27;45276;-76
2023/12/10 06:30:23;;;;;;;;;0.00;0.00;;;;;-146.25;100.00;57879.81;5121376;27;45402;-75
2023/12/10 06:32:49;;;;;;;;;0.00;0.00;;;;;-146.25;100.00;57879.81;5102092;27;46864;-76
2023/12/10 06:35:15;;;;;;;;;0.00;0.00;;;;;-146.25;100.00;57879.81;5120509;27;45411;-76
2023/12/10 06:37:41;;;;;;;;;0.00;0.00;;;;;-146.25;100.00;57879.81;5120980;27;45400;-76
2023/12/10 06:40:07;;;;;;;;;0.00;0.00;;;;;-146.25;100.00;57879.81;5121080;27;45331;-76
2023/12/10 06:42:33;;;;;;;;;0.00;0.00;;;;;-146.25;100.00;57879.81;5120664;27;45528;-75
2023/12/10 06:44:59;;;;;;;;;1.00;0.00;;;;;-146.25;100.00;57879.81;5120782;27;45576;-76
2023/12/10 06:47:25;;;;;;;;;1.00;0.00;;;;;-146.25;100.00;57879.81;5121091;27;45365;-76
2023/12/10 06:49:51;;;;;;;;;0.00;0.00;;;;;-146.25;100.00;57879.81;5121026;27;45234;-76
2023/12/10 06:52:17;;;;;;;;;0.00;0.00;;;;;-146.25;100.00;57879.81;5120480;27;45314;-76
2023/12/10 06:54:43;;;;;;;;;0.00;0.00;;;;;-146.25;100.00;57879.81;5120825;27;45460;-76
2023/12/10 06:57:08;;;;;;;;;0.00;0.00;;;;;-146.25;100.00;57879.81;5120308;27;45503;-75
2023/12/10 06:59:34;;;;;;;;;0.00;0.00;;;;;-146.25;100.00;57879.81;5120643;27;45472;-76
2023/12/10 07:02:00;;;;;;;;;0.00;0.00;;;;;-146.25;100.00;57879.81;5114180;27;46217;-76
2023/12/10 07:04:26;;;;;;;;;1.00;1.00;;;;;-146.25;100.00;57879.81;5108781;27;45429;-75
2023/12/10 07:06:51;;;;;;;;;2.00;2.00;;;;;-146.25;100.00;57879.81;5092143;27;45523;-75
2023/12/10 07:09:17;;;;;;;;;1.00;1.00;;;;;-146.25;100.00;57879.81;5109324;27;45513;-76
2023/12/10 07:11:43;;;;;;;;;0.00;0.00;;;;;-146.25;100.00;57879.81;5109001;27;45496;-74
2023/12/10 07:14:08;;;;;;;;;0.00;0.00;;;;;-146.25;100.00;57879.81;5091799;27;45409;-75
2023/12/10 07:16:34;;;;;;;;;0.00;0.00;;;;;-146.25;100.00;57879.81;5108698;27;45392;-75
2023/12/10 07:19:00;;;;;;;;;0.00;0.00;;;;;-146.25;100.00;57879.81;5109593;27;45455;-75
2023/12/10 07:21:25;;;;;;;;;0.00;0.00;;;;;-146.25;100.00;57879.81;5109854;27;46080;-75
2023/12/10 07:23:51;;;;;;;;;0.00;0.00;;;;;-146.25;100.00;57879.81;5089694;27;45546;-74
2023/12/10 07:26:24;;;;;;;;;0.00;0.00;;;;;-146.25;100.00;57879.81;5091510;27;45481;-74
2023/12/10 07:28:53;;;;;;;;;0.00;0.00;;;;;-146.25;100.00;57879.81;5110343;27;45520;-74
2023/12/10 07:31:19;;;;;;;;;0.00;0.00;;;;;-146.25;100.00;57879.81;5107950;27;46091;-74
2023/12/10 07:33:45;;;;;;;;;0.00;0.00;;;;;-146.25;100.00;57879.81;5108861;27;46028;-76
2023/12/10 07:36:11;;;;;;;;;0.00;0.00;;;;;-146.25;100.00;57879.81;5110194;27;45688;-76
2023/12/10 07:38:38;;;;;;;;;0.00;0.00;;;;;-146.25;100.00;57879.81;5108421;27;45367;-76
2023/12/10 07:41:06;;;;;;;;;0.00;0.00;;;;;-146.25;100.00;57879.81;5108701;27;45428;-76
2023/12/10 07:43:33;;;;;;;;;0.00;0.00;;;;;-146.25;100.00;57879.81;5109734;27;45357;-76
2023/12/10 07:45:59;;;;;;;;;1.00;0.00;;;;;-146.25;100.00;57879.81;5108332;27;45436;-76
2023/12/10 07:48:25;;;;;;;;;0.00;0.00;;;;;-146.25;100.00;57879.81;5108763;27;45501;-75
2023/12/10 07:50:50;;;;;;;;;0.00;0.00;;;;;-146.25;100.00;57879.81;5109333;27;45444;-75
2023/12/10 07:53:17;;;;;;;;;0.00;0.00;;;;;-146.25;100.00;57879.81;5088927;27;45227;-75
2023/12/10 07:55:43;;;;;;;;;1.00;0.00;;;;;-146.25;100.00;57879.81;5109141;27;45240;-76
2023/12/10 07:58:09;;;;;;;;;0.00;0.00;;;;;-146.25;100.00;57879.81;5109601;27;45562;-75
2023/12/10 08:00:35;;;;;;;;;0.00;0.00;;;;;-146.25;100.00;57879.81;5107014;27;45938;-75
2023/12/10 08:03:00;;;;;;;;;0.33;0.00;;;;;-146.25;100.00;57879.81;5109127;27;45408;-75
2023/12/10 08:05:26;;;;;;;;;1.00;1.00;;;;;-146.25;100.00;57879.81;5108850;27;45716;-75
2023/12/10 08:07:52;;;;;;;;;2.00;1.00;;;;;-146.25;100.00;57879.81;5107602;27;45551;-76
2023/12/10 08:10:18;;;;;;;;;3.33;3.00;;;;;-146.25;100.00;57879.81;5108500;27;45358;-75
2023/12/10 08:12:44;;;;;;;;;2.00;2.00;;;;;-146.25;100.00;57879.81;5108312;27;45387;-76
2023/12/10 08:15:10;;;;;;;;;1.00;1.00;;;;;-146.25;100.00;57879.81;5107463;27;45412;-76
2023/12/10 08:17:36;;;;;;;;;3.00;3.00;;;;;-146.25;100.00;57879.81;5091058;27;45508;-75
2023/12/10 08:20:03;;;;;;;;;1.00;1.00;;;;;-146.25;100.00;57879.81;5107861;27;45340;-75
2023/12/10 08:22:28;;;;;;;;;3.00;3.00;;;;;-146.25;100.00;57879.81;5107400;27;45354;-75
2023/12/10 08:24:54;;;;;;;;;4.67;3.00;;;;;-146.25;100.00;57879.81;5118997;27;45519;-76
2023/12/10 08:27:20;;;;;;;;;3.00;2.00;;;;;-146.25;100.00;57879.81;5119488;27;45302;-75
2023/12/10 08:29:45;;;;;;;;;1.33;1.00;;;;;-146.25;100.00;57879.81;5118872;27;46106;-76
2023/12/10 08:32:11;;;;;;;;;1.00;1.00;;;;;-146.25;100.00;57879.81;5119035;27;45272;-76
2023/12/10 08:34:37;;;;;;;;;2.00;1.00;;;;;-146.25;100.00;57879.81;5118854;27;45456;-76
2023/12/10 08:37:03;;;;;;;;;1.00;1.00;;;;;-146.25;100.00;57879.81;5119322;27;45674;-76
2023/12/10 08:39:29;;;;;;;;;1.00;1.00;;;;;-146.25;100.00;57879.81;5118777;27;45273;-76
2023/12/10 08:41:55;;;;;;;;;0.00;0.00;;;;;-146.25;100.00;57879.81;5118773;27;45600;-75
2023/12/10 08:44:20;;;;;;;;;1.33;1.00;;;;;-146.25;100.00;57879.81;5118822;27;45464;-75
2023/12/10 08:46:46;;;;;;;;;0.33;0.00;;;;;-146.25;100.00;57879.81;5119212;27;45557;-76
2023/12/10 08:49:12;;;;;;;;;1.00;1.00;;;;;-146.25;100.00;57879.81;5118808;27;45513;-75
2023/12/10 08:51:37;;;;;;;;;2.00;2.00;;;;;-146.25;100.00;57879.81;5118483;27;45272;-76
2023/12/10 08:54:03;;;;;;;;;4.00;3.67;;;;;-146.25;100.00;57879.81;5119016;27;45369;-76
2023/12/10 08:56:29;;;;;;;;;1.33;1.00;;;;;-146.25;100.00;57879.81;5118789;27;45511;-76
2023/12/10 08:58:55;;;;;;;;;1.00;1.00;;;;;-146.25;100.00;57879.81;5118650;27;45486;-75
2023/12/10 09:01:20;;;;;;;;;2.00;2.00;;;;;-146.25;100.00;57879.81;5118552;27;45368;-75
2023/12/10 09:03:46;;;;;;;;;1.00;1.00;;;;;-146.25;100.00;57879.81;5118719;27;45287;-76
2023/12/10 09:06:12;;;;;;;;;0.67;0.00;;;;;-146.25;100.00;57879.81;5100575;27;45393;-76
2023/12/10 09:08:38;;;;;;;;;0.33;0.00;;;;;-146.25;100.00;57879.81;5094692;27;46610;-73
2023/12/10 09:11:04;;;;;;;;;1.00;1.00;;;;;-146.25;100.00;57879.81;5088902;27;45640;-74
2023/12/10 09:13:35;;;;;;;;;3.33;3.00;;;;;-146.25;100.00;57879.81;5108201;27;45563;-75
2023/12/10 09:16:01;;;;;;;;;11.00;10.00;;;;;-146.25;100.00;57879.81;5107007;27;45365;-72
2023/12/10 09:18:27;;;;;;;;;1.00;1.00;;;;;-146.25;100.00;57879.81;5106580;27;46166;-73
2023/12/10 09:20:54;;;;;;;;;4.67;4.00;;;;;-146.25;100.00;57879.81;5107913;27;45638;-75
2023/12/10 09:23:20;;;;;;;;;3.00;2.00;;;;;-146.25;100.00;57879.81;5101353;27;45475;-74
2023/12/10 09:25:46;;;;;;;;;1.67;1.00;;;;;-146.25;100.00;57879.81;5118294;27;45376;-75
2023/12/10 09:28:12;;;;;;;;;1.67;1.00;;;;;-146.25;100.00;57879.81;5109429;27;45501;-75
2023/12/10 09:30:37;;;;;;;;;4.67;3.00;;;;;-146.25;100.00;57879.81;5108353;27;45475;-74
2023/12/10 09:33:05;;;;;;;;;2.00;2.00;;;;;-146.25;100.00;57879.81;5108286;27;45619;-75
2023/12/10 09:35:31;;;;;;;;;1.00;1.00;;;;;-146.25;100.00;57879.81;5097829;27;45545;-73
2023/12/10 09:37:56;;;;;;;;;3.67;3.33;;;;;-146.25;100.00;57879.81;5100953;27;45508;-73
2023/12/10 09:40:22;;;;;;;;;1.00;1.00;;;;;-146.25;100.00;57879.81;5101560;27;45370;-73
2023/12/10 09:42:48;;;;;;;;;3.00;3.00;;;;;-146.25;100.00;57879.81;5097536;27;45452;-75
2023/12/10 09:45:14;;;;;;;;;3.00;2.00;;;;;-146.25;100.00;57879.81;5105373;27;45327;-74
2023/12/10 09:47:41;;;;;;;;;1.50;1.50;;;;;-146.25;100.00;57879.81;5099821;27;46104;-73
2023/12/10 09:50:07;;;;;;;;;2.00;2.00;;;;;-146.25;100.00;57879.81;5097633;27;45425;-74
2023/12/10 09:52:32;;;;;;;;;0.00;0.00;;;;;-146.25;100.00;57879.81;5097252;27;45496;-73
2023/12/10 09:54:58;;;;;;;;;2.33;0.67;;;;;-146.25;100.00;57879.81;5097468;27;45322;-73
2023/12/10 09:57:27;;;;;;;;;1.67;0.67;;;;;-146.25;100.00;57879.81;5116466;27;45449;-73
2023/12/10 09:59:53;;;;;;;;;1.33;0.67;;;;;-146.25;100.00;57879.81;5117469;27;45544;-74
2023/12/10 10:02:19;;;;;;;;;2.67;2.67;;;;;-146.25;100.00;57879.81;5117688;27;45374;-74
2023/12/10 10:04:46;;;;;;;;;10.67;8.33;;;;;-146.25;100.00;57879.81;5117998;27;45310;-76
2023/12/10 10:07:13;;;;;;;;;5.67;3.67;;;;;-146.25;100.00;57879.81;5117175;27;46983;-76
2023/12/10 10:09:39;;;;;;;;;2.67;2.67;;;;;-146.25;100.00;57879.81;5117879;27;45472;-76
2023/12/10 10:12:06;;;;;;;;;2.33;2.33;;;;;-146.25;100.00;57879.81;5117908;27;45464;-75
2023/12/10 10:14:31;;;;;;;;;3.33;3.00;;;;;-146.25;100.00;57879.81;5117910;27;45422;-76
2023/12/10 10:16:57;;;;;;;;;0.67;0.33;;;;;-146.25;100.00;57879.81;5117304;27;45872;-75
2023/12/10 10:19:23;;;;;;;;;0.00;0.00;;;;;-146.25;100.00;57879.81;5117236;27;45311;-75
2023/12/10 10:21:50;;;;;;;;;1.67;1.67;;;;;-146.25;100.00;57879.81;5117438;27;45314;-75
2023/12/10 10:24:15;;;;;;;;;1.33;0.67;;;;;-146.25;100.00;57879.81;5117218;27;45568;-75
2023/12/10 10:26:41;;;;;;;;;0.33;0.33;;;;;-146.25;100.00;57879.81;5117278;27;45364;-76
2023/12/10 10:29:07;;;;;;;;;0.67;0.67;;;;;-146.25;100.00;57879.81;5117615;27;45401;-75
2023/12/10 10:31:34;;;;;;;;;3.33;2.00;;;;;-146.25;100.00;57879.81;5117552;27;45488;-75
2023/12/10 10:34:05;;;;;;;;;0.00;0.00;;;;;-146.25;100.00;57879.81;5102076;27;45533;-74
2023/12/10 10:36:31;;;;;;;;;0.00;0.00;;;;;-146.25;100.00;57879.81;5120721;27;45551;-75
2023/12/10 10:38:57;;;;;;;;;0.33;0.33;;;;;-146.25;100.00;57879.81;5120071;27;45412;-76
2023/12/10 10:41:25;;;;;;;;;0.00;0.00;;;;;-146.25;100.00;57879.81;5120662;27;45451;-76
2023/12/10 10:43:50;;;;;;;;;2.33;1.00;;;;;-146.25;100.00;57879.81;5120556;27;45543;-74
2023/12/10 10:46:21;;;;;;;;;0.00;0.00;;;;;-146.25;100.00;57879.81;5120212;27;46057;-79
2023/12/10 10:48:52;;;;;;;;;0.33;0.33;;;;;-146.25;100.00;57879.81;5120200;27;45469;-77
2023/12/10 10:51:27;;;;;;;;;1.00;1.00;;;;;-146.25;100.00;57879.81;5109193;27;45336;-73
2023/12/10 10:53:58;;;;;;;;;1.33;0.67;;;;;-146.25;100.00;57879.81;5100008;27;45420;-75
2023/12/10 10:56:24;;;;;;;;;2.00;2.00;;;;;-146.25;100.00;57879.81;5102521;27;45426;-74
2023/12/10 10:58:50;;;;;;;;;2.00;1.00;;;;;-146.25;100.00;57879.81;5105117;27;45367;-74
2023/12/10 11:01:45;;;;;;;;;0.00;0.00;;;;;-146.25;100.00;57879.81;5120221;27;45470;-74
2023/12/10 11:04:16;;;;;;;;;0.00;0.00;;;;;-146.25;100.00;57879.81;5120914;27;45346;-75